Time;durP1;ratioP1;P1;durP2;ratioP2;P2;SDS_P1;SDS_P2;PMS_P1;PMS_P2;Temp;Humidity;BMP_temperature;BMP_pressure;BME280_temperature;BME280_humidity;BME280_pressure;Samples;Min_cycle;Max_cycle;Signal;HPM_P1;HPM_P2
2023/07/06 00:12:23;;;;;;;9.90;7.80;;;;;;;;;;4989154;28;20183;-72
2023/07/06 00:18:48;;;;;;;13.13;7.20;;;;;;;;;;4990127;28;20734;-72
2023/07/06 00:25:58;;;;;;;6.70;5.77;;;;;;;;;;4989436;28;20186;-72
2023/07/06 00:32:27;;;;;;;8.33;6.87;;;;;;;;;;4989277;28;20235;-72
2023/07/06 00:39:30;;;;;;;12.27;7.27;;;;;;;;;;4974384;28;214834;-72
2023/07/06 00:46:39;;;;;;;12.20;6.87;;;;;;;;;;4969423;28;20176;-72
2023/07/06 01:37:41;;;;;;;9.33;6.30;;;;;;;;;;4889737;29;20228;-72
2023/07/06 01:44:09;;;;;;;23.43;5.60;;;;;;;;;;4949321;29;20240;-72
2023/07/06 01:51:18;;;;;;;8.23;5.67;;;;;;;;;;4949145;29;20197;-72
2023/07/06 01:58:04;;;;;;;9.27;5.70;;;;;;;;;;4949514;29;20648;-72
2023/07/06 02:04:31;;;;;;;9.07;4.90;;;;;;;;;;4948457;28;20209;-72
2023/07/06 02:11:01;;;;;;;5.77;4.93;;;;;;;;;;4962936;28;20208;-72
2023/07/06 02:17:28;;;;;;;7.87;4.93;;;;;;;;;;4972186;28;20671;-72
2023/07/06 02:24:07;;;;;;;5.87;5.00;;;;;;;;;;4972213;28;20180;-72
2023/07/06 02:30:34;;;;;;;33.27;6.13;;;;;;;;;;4972875;28;20176;-72
2023/07/06 02:41:31;;;;;;;9.37;4.80;;;;;;;;;;4991759;28;20789;-72
2023/07/06 02:47:59;;;;;;;8.73;5.57;;;;;;;;;;4991271;28;20163;-72
2023/07/06 02:54:26;;;;;;;8.17;5.47;;;;;;;;;;4991089;28;20179;-72
2023/07/06 03:00:55;;;;;;;8.93;5.10;;;;;;;;;;4991426;28;20276;-72
2023/07/06 03:07:23;;;;;;;9.60;5.73;;;;;;;;;;4990756;28;20230;-73
2023/07/06 03:13:51;;;;;;;8.00;5.70;;;;;;;;;;4988488;28;20179;-77
2023/07/06 03:29:17;;;;;;;7.57;5.10;;;;;;;;;;4914781;29;20248;-72
2023/07/06 03:39:42;;;;;;;7.77;5.30;;;;;;;;;;4906689;28;20272;-72
2023/07/06 04:19:56;;;;;;;6.27;3.97;;;;;;;;;;4896414;29;20183;-74
2023/07/06 04:34:47;;;;;;;5.23;3.30;;;;;;;;;;4888813;29;20214;-72
2023/07/06 04:49:25;;;;;;;6.03;2.90;;;;;;;;;;4986530;28;20203;-71
2023/07/06 05:00:34;;;;;;;5.37;3.67;;;;;;;;;;4987799;28;20188;-70
2023/07/06 05:18:06;;;;;;;5.40;2.13;;;;;;;;;;4893430;29;20657;-69
2023/07/06 05:24:32;;;;;;;4.30;2.10;;;;;;;;;;4892555;29;20695;-69
2023/07/06 05:57:48;;;;;;;4.60;1.90;;;;;;;;;;4928095;29;20821;-79
2023/07/06 06:08:47;;;;;;;6.00;1.80;;;;;;;;;;4882905;29;20764;-81
2023/07/06 06:19:16;;;;;;;6.40;1.87;;;;;;;;;;4931229;29;20178;-73
2023/07/06 06:29:47;;;;;;;5.10;1.70;;;;;;;;;;4924820;29;20749;-73
2023/07/06 06:36:13;;;;;;;2.60;1.40;;;;;;;;;;4966756;28;20264;-73
2023/07/06 06:42:40;;;;;;;3.93;1.60;;;;;;;;;;4947350;29;20181;-74
2023/07/06 06:57:39;;;;;;;3.53;1.43;;;;;;;;;;4846020;29;20230;-82
2023/07/06 07:04:17;;;;;;;3.27;1.30;;;;;;;;;;4892430;29;20229;-81
2023/07/06 07:10:43;;;;;;;1.87;1.20;;;;;;;;;;4893817;29;20195;-81
2023/07/06 07:17:10;;;;;;;6.87;1.37;;;;;;;;;;4912616;29;20298;-81
2023/07/06 07:31:57;;;;;;;1.60;1.07;;;;;;;;;;4871577;28;20192;-73
2023/07/06 07:38:24;;;;;;;2.43;0.93;;;;;;;;;;4991076;28;20284;-75
2023/07/06 07:44:51;;;;;;;4.23;1.20;;;;;;;;;;5000847;28;20179;-74
2023/07/06 08:26:42;;;;;;;2.30;0.90;;;;;;;;;;4817994;29;20284;-87
2023/07/06 08:37:29;;;;;;;3.00;1.20;;;;;;;;;;4824276;29;20205;-79
2023/07/06 08:48:18;;;;;;;1.70;1.10;;;;;;;;;;4927572;29;20182;-81
2023/07/06 09:32:21;;;;;;;2.57;1.20;;;;;;;;;;4854839;29;20188;-81
2023/07/06 09:35:08;;;;;;;2.43;1.30;;;;;;;;;;5084562;27;20538;-79
2023/07/06 09:37:53;;;;;;;3.87;1.20;;;;;;;;;;5045474;28;20175;-75
2023/07/06 09:40:28;;;;;;;2.77;1.00;;;;;;;;;;5043187;28;20210;-82
2023/07/06 09:43:01;;;;;;;2.30;1.10;;;;;;;;;;5044564;28;20934;-88
2023/07/06 09:45:32;;;;;;;3.13;1.03;;;;;;;;;;5059890;28;20206;-83
2023/07/06 09:48:03;;;;;;;2.90;1.30;;;;;;;;;;5048223;28;20198;-80
2023/07/06 09:50:36;;;;;;;2.53;1.10;;;;;;;;;;5049617;28;20199;-79
2023/07/06 09:53:07;;;;;;;3.50;1.30;;;;;;;;;;5060367;28;20589;-83
2023/07/06 09:55:37;;;;;;;3.60;1.10;;;;;;;;;;5061206;28;20201;-79
2023/07/06 09:58:04;;;;;;;1.17;1.00;;;;;;;;;;5062852;28;20238;-77
2023/07/06 10:00:33;;;;;;;2.83;1.23;;;;;;;;;;5062178;28;20186;-75
2023/07/06 10:03:03;;;;;;;3.67;1.03;;;;;;;;;;5049017;28;20191;-76
2023/07/06 10:05:51;;;;;;;3.43;1.40;;;;;;;;;;5064078;28;20178;-85
2023/07/06 10:08:18;;;;;;;1.70;1.10;;;;;;;;;;5029992;28;20212;-77
2023/07/06 10:10:52;;;;;;;2.53;1.20;;;;;;;;;;5062986;28;20198;-76
2023/07/06 10:13:24;;;;;;;2.20;1.40;;;;;;;;;;5064773;28;20256;-78
2023/07/06 10:16:14;;;;;;;1.57;1.20;;;;;;;;;;5048587;28;20576;-82
2023/07/06 10:18:41;;;;;;;4.43;1.70;;;;;;;;;;5034798;28;20197;-80
2023/07/06 10:21:20;;;;;;;1.90;1.40;;;;;;;;;;5060167;28;20190;-80
2023/07/06 10:23:49;;;;;;;1.90;1.10;;;;;;;;;;5047141;28;20191;-83
2023/07/06 10:26:28;;;;;;;2.70;1.50;;;;;;;;;;5065747;28;20188;-77
2023/07/06 10:29:00;;;;;;;2.00;1.10;;;;;;;;;;5063871;28;20251;-76
2023/07/06 10:31:33;;;;;;;1.47;1.27;;;;;;;;;;5064750;28;20181;-76
2023/07/06 10:34:39;;;;;;;2.87;1.30;;;;;;;;;;5048237;28;20269;-78
2023/07/06 10:37:07;;;;;;;2.23;1.40;;;;;;;;;;5017834;28;20204;-78
2023/07/06 10:39:55;;;;;;;2.77;1.50;;;;;;;;;;4991092;28;20286;-77
2023/07/06 10:42:23;;;;;;;3.93;1.10;;;;;;;;;;5021451;28;20204;-76
2023/07/06 10:44:51;;;;;;;1.83;1.37;;;;;;;;;;5017661;28;20275;-79
2023/07/06 10:47:33;;;;;;;2.03;1.20;;;;;;;;;;5008370;28;20197;-86
2023/07/06 10:50:30;;;;;;;2.30;1.47;;;;;;;;;;5008809;28;20554;-82
2023/07/06 10:52:58;;;;;;;2.90;1.50;;;;;;;;;;5009234;28;20184;-80
2023/07/06 10:55:43;;;;;;;2.20;1.50;;;;;;;;;;5008270;28;20744;-74
2023/07/06 10:58:14;;;;;;;2.97;1.37;;;;;;;;;;5008278;28;20246;-73
2023/07/06 11:00:42;;;;;;;2.17;1.57;;;;;;;;;;4991379;28;20971;-71
2023/07/06 11:03:12;;;;;;;3.00;1.40;;;;;;;;;;5009095;28;20184;-73
2023/07/06 11:05:51;;;;;;;1.67;1.40;;;;;;;;;;5008009;28;20235;-73
2023/07/06 11:08:39;;;;;;;3.00;1.37;;;;;;;;;;5007385;28;20193;-75
2023/07/06 11:11:12;;;;;;;2.00;1.53;;;;;;;;;;4995877;28;20215;-75
2023/07/06 11:13:56;;;;;;;4.17;1.40;;;;;;;;;;5019784;28;20719;-71
2023/07/06 11:16:26;;;;;;;2.10;1.30;;;;;;;;;;5008297;28;20195;-87
2023/07/06 11:18:58;;;;;;;2.23;1.30;;;;;;;;;;5008528;28;20201;-83
2023/07/06 11:21:31;;;;;;;3.07;1.57;;;;;;;;;;5009147;28;20203;-72
2023/07/06 11:24:02;;;;;;;3.07;1.37;;;;;;;;;;5004284;28;20663;-80
2023/07/06 11:26:49;;;;;;;2.77;1.60;;;;;;;;;;5008888;28;20188;-79
2023/07/06 11:29:34;;;;;;;2.90;1.20;;;;;;;;;;5010003;28;20207;-78
2023/07/06 11:32:25;;;;;;;4.00;1.53;;;;;;;;;;5007139;28;20615;-78
2023/07/06 11:35:11;;;;;;;1.80;1.30;;;;;;;;;;4972174;28;20240;-78
2023/07/06 11:37:53;;;;;;;3.47;1.53;;;;;;;;;;5020035;28;20193;-77
2023/07/06 11:40:43;;;;;;;1.90;1.40;;;;;;;;;;4973333;28;20236;-80
2023/07/06 11:43:29;;;;;;;1.90;1.30;;;;;;;;;;4980445;28;20194;-75
2023/07/06 11:46:17;;;;;;;3.57;1.30;;;;;;;;;;4994602;28;20675;-75
2023/07/06 11:48:49;;;;;;;3.30;1.47;;;;;;;;;;4988027;28;20205;-76
2023/07/06 11:51:18;;;;;;;1.90;1.50;;;;;;;;;;5020413;28;20189;-75
2023/07/06 11:56:32;;;;;;;2.03;1.50;;;;;;;;;;5019391;28;20223;-76
2023/07/06 11:59:01;;;;;;;3.17;1.40;;;;;;;;;;4999432;28;20208;-74
2023/07/06 12:01:47;;;;;;;1.70;1.30;;;;;;;;;;5014415;28;20192;-75
2023/07/06 12:04:18;;;;;;;2.73;1.20;;;;;;;;;;4988087;28;20228;-75
2023/07/06 12:06:48;;;;;;;3.07;1.50;;;;;;;;;;4980208;28;20191;-76
2023/07/06 12:09:18;;;;;;;2.00;1.33;;;;;;;;;;4984367;28;20193;-72
2023/07/06 12:11:55;;;;;;;2.50;1.50;;;;;;;;;;4971352;28;20207;-78
2023/07/06 12:14:22;;;;;;;2.60;1.30;;;;;;;;;;4987836;28;20217;-79
2023/07/06 12:16:50;;;;;;;2.70;1.50;;;;;;;;;;4971795;28;20177;-72
2023/07/06 12:19:17;;;;;;;3.00;1.40;;;;;;;;;;4986191;28;20545;-78
2023/07/06 12:21:52;;;;;;;1.73;1.23;;;;;;;;;;4994182;28;20185;-78
2023/07/06 12:24:20;;;;;;;2.67;1.50;;;;;;;;;;5019822;28;20212;-78
2023/07/06 12:26:51;;;;;;;2.00;1.40;;;;;;;;;;4988223;28;20598;-77
2023/07/06 12:29:19;;;;;;;2.13;1.40;;;;;;;;;;5018904;28;20201;-73
2023/07/06 12:31:47;;;;;;;2.57;1.40;;;;;;;;;;5002595;28;20291;-73
2023/07/06 12:34:18;;;;;;;2.33;1.40;;;;;;;;;;5002545;28;20235;-70
2023/07/06 12:36:49;;;;;;;2.57;1.40;;;;;;;;;;5019242;28;20204;-78
2023/07/06 12:39:18;;;;;;;2.23;1.30;;;;;;;;;;5004594;28;20847;-77
2023/07/06 12:41:44;;;;;;;3.57;2.00;;;;;;;;;;4974748;28;20187;-77
2023/07/06 12:44:17;;;;;;;2.30;1.90;;;;;;;;;;5010046;28;20202;-77
2023/07/06 12:47:17;;;;;;;1.80;1.30;;;;;;;;;;5013198;28;20250;-74
2023/07/06 12:49:47;;;;;;;3.13;1.50;;;;;;;;;;5001540;28;20199;-74
2023/07/06 12:52:23;;;;;;;2.67;1.30;;;;;;;;;;4972221;28;20228;-72
2023/07/06 12:54:52;;;;;;;2.27;1.57;;;;;;;;;;4981052;28;20278;-76
2023/07/06 12:57:38;;;;;;;2.33;1.33;;;;;;;;;;4991512;28;20187;-73
2023/07/06 13:00:09;;;;;;;3.40;1.43;;;;;;;;;;5002296;28;20664;-75
2023/07/06 13:02:42;;;;;;;2.90;1.30;;;;;;;;;;5020564;28;20185;-73
2023/07/06 13:05:14;;;;;;;4.07;1.63;;;;;;;;;;4982320;28;20327;-74
2023/07/06 13:07:43;;;;;;;2.93;1.30;;;;;;;;;;4983472;28;20626;-75
2023/07/06 13:10:14;;;;;;;3.10;1.60;;;;;;;;;;4988614;28;20656;-72
2023/07/06 13:12:41;;;;;;;2.77;1.10;;;;;;;;;;5001006;28;20200;-69
2023/07/06 13:15:13;;;;;;;1.60;1.30;;;;;;;;;;4998245;28;20243;-70
2023/07/06 13:17:47;;;;;;;5.23;1.70;;;;;;;;;;5007674;28;20199;-70
2023/07/06 13:20:31;;;;;;;4.37;1.97;;;;;;;;;;4987211;28;20184;-70
2023/07/06 13:22:58;;;;;;;3.17;1.50;;;;;;;;;;4995115;28;20208;-70
2023/07/06 13:25:25;;;;;;;2.77;1.70;;;;;;;;;;4996357;28;20196;-69
2023/07/06 13:27:52;;;;;;;4.00;1.70;;;;;;;;;;5007309;28;20267;-70
2023/07/06 13:30:21;;;;;;;4.27;1.80;;;;;;;;;;5006251;28;20208;-70
2023/07/06 13:32:48;;;;;;;4.57;2.30;;;;;;;;;;5004265;28;20215;-67
2023/07/06 13:35:16;;;;;;;4.53;2.37;;;;;;;;;;5007227;28;20224;-67
2023/07/06 13:37:46;;;;;;;7.17;2.20;;;;;;;;;;4994646;28;20616;-67
2023/07/06 13:40:13;;;;;;;4.97;2.20;;;;;;;;;;5002351;28;20310;-66
2023/07/06 13:42:41;;;;;;;6.33;2.47;;;;;;;;;;5004758;28;20277;-67
2023/07/06 13:45:14;;;;;;;3.70;2.10;;;;;;;;;;4997561;28;20537;-68
2023/07/06 13:47:41;;;;;;;3.87;2.10;;;;;;;;;;4998833;28;20189;-68
2023/07/06 13:50:11;;;;;;;3.90;2.20;;;;;;;;;;4990368;28;20251;-68
2023/07/06 13:52:38;;;;;;;5.50;2.43;;;;;;;;;;4997295;28;20189;-68
2023/07/06 13:55:12;;;;;;;3.87;2.17;;;;;;;;;;4994272;28;20224;-68
2023/07/06 13:57:41;;;;;;;5.77;2.50;;;;;;;;;;5003758;28;20233;-68
2023/07/06 14:00:09;;;;;;;8.33;3.07;;;;;;;;;;4998412;28;20188;-67
2023/07/06 14:02:40;;;;;;;3.50;2.20;;;;;;;;;;5003429;28;20201;-67
2023/07/06 14:05:09;;;;;;;4.10;2.00;;;;;;;;;;4991371;28;20654;-67
2023/07/06 14:07:53;;;;;;;2.93;2.10;;;;;;;;;;5001698;28;20181;-67
2023/07/06 14:10:19;;;;;;;5.77;1.93;;;;;;;;;;4980179;28;20521;-67
2023/07/06 14:12:52;;;;;;;4.90;2.37;;;;;;;;;;4989244;28;20189;-67
2023/07/06 14:15:19;;;;;;;3.40;1.90;;;;;;;;;;4993425;28;20295;-67
2023/07/06 14:18:04;;;;;;;3.87;2.00;;;;;;;;;;4991587;28;20180;-67
2023/07/06 14:20:31;;;;;;;2.50;1.90;;;;;;;;;;5001591;28;20703;-67
2023/07/06 14:23:03;;;;;;;4.90;2.10;;;;;;;;;;5003395;28;20193;-67
2023/07/06 14:25:31;;;;;;;3.03;1.90;;;;;;;;;;5011019;28;20559;-67
2023/07/06 14:27:58;;;;;;;2.10;1.83;;;;;;;;;;4996099;28;20199;-67
2023/07/06 14:30:30;;;;;;;3.07;1.87;;;;;;;;;;5007423;28;20555;-67
2023/07/06 14:33:02;;;;;;;3.90;1.73;;;;;;;;;;5013437;28;21337;-69
2023/07/06 14:35:29;;;;;;;4.07;2.10;;;;;;;;;;5012203;28;20282;-66
2023/07/06 14:37:57;;;;;;;2.87;1.73;;;;;;;;;;5013158;28;20192;-66
2023/07/06 14:40:23;;;;;;;3.23;1.57;;;;;;;;;;5006512;28;20197;-66
2023/07/06 14:42:54;;;;;;;7.07;1.80;;;;;;;;;;4999053;28;20208;-66
2023/07/06 14:45:21;;;;;;;4.47;1.90;;;;;;;;;;4996098;28;20275;-66
2023/07/06 14:47:48;;;;;;;3.10;1.40;;;;;;;;;;5011506;28;20238;-64
2023/07/06 14:50:32;;;;;;;4.67;1.73;;;;;;;;;;5008921;28;20172;-66
2023/07/06 14:52:58;;;;;;;3.90;1.80;;;;;;;;;;5001914;28;20598;-66
2023/07/06 14:55:27;;;;;;;3.30;2.07;;;;;;;;;;5008152;28;20228;-66
2023/07/06 14:57:53;;;;;;;5.23;2.00;;;;;;;;;;5012687;28;20184;-66
2023/07/06 15:00:20;;;;;;;3.30;1.70;;;;;;;;;;5011824;28;20192;-59
2023/07/06 15:02:48;;;;;;;3.73;1.60;;;;;;;;;;5012684;28;20243;-58
2023/07/06 15:05:15;;;;;;;4.60;1.73;;;;;;;;;;5013732;28;20199;-60
2023/07/06 15:07:42;;;;;;;3.57;1.80;;;;;;;;;;5009332;28;20598;-60
2023/07/06 15:10:26;;;;;;;5.27;1.90;;;;;;;;;;5004191;28;20176;-66
2023/07/06 15:12:52;;;;;;;2.60;1.67;;;;;;;;;;5011956;28;20251;-66
2023/07/06 15:15:38;;;;;;;5.03;1.53;;;;;;;;;;5014537;28;20199;-66
2023/07/06 15:18:08;;;;;;;4.33;1.93;;;;;;;;;;5009628;28;20604;-66
2023/07/06 15:21:07;;;;;;;3.70;2.00;;;;;;;;;;5012788;28;20334;-66
2023/07/06 15:23:34;;;;;;;3.23;1.97;;;;;;;;;;5012330;28;20567;-65
2023/07/06 15:26:02;;;;;;;4.43;2.00;;;;;;;;;;5009850;28;20238;-66
2023/07/06 15:28:29;;;;;;;4.13;1.70;;;;;;;;;;5012315;28;20199;-65
2023/07/06 15:30:56;;;;;;;6.03;2.00;;;;;;;;;;5008806;28;20200;-66
2023/07/06 15:33:23;;;;;;;4.73;2.20;;;;;;;;;;5011579;28;20244;-59
2023/07/06 15:35:50;;;;;;;3.93;1.90;;;;;;;;;;5006940;28;20217;-62
2023/07/06 15:38:17;;;;;;;4.47;1.80;;;;;;;;;;5002764;28;20192;-61
2023/07/06 15:40:45;;;;;;;2.93;1.60;;;;;;;;;;5006262;28;20189;-62
2023/07/06 15:43:12;;;;;;;3.53;1.77;;;;;;;;;;5007406;28;20203;-63
2023/07/06 15:45:39;;;;;;;3.53;1.60;;;;;;;;;;5014527;28;20241;-62
2023/07/06 15:48:24;;;;;;;3.23;1.73;;;;;;;;;;5011409;28;20180;-62
2023/07/06 15:50:52;;;;;;;4.30;2.10;;;;;;;;;;5010221;28;20203;-62
2023/07/06 15:53:37;;;;;;;3.23;1.70;;;;;;;;;;5010305;28;20180;-62
2023/07/06 15:56:04;;;;;;;5.20;1.80;;;;;;;;;;4999684;28;20227;-59
2023/07/06 15:58:58;;;;;;;3.07;1.63;;;;;;;;;;5004856;28;20234;-59
2023/07/06 16:01:25;;;;;;;3.30;1.60;;;;;;;;;;5001162;28;20257;-58
2023/07/06 16:04:09;;;;;;;3.07;1.60;;;;;;;;;;5008901;28;20180;-58
2023/07/06 16:06:39;;;;;;;2.83;1.73;;;;;;;;;;5017202;28;20575;-58
2023/07/06 16:09:23;;;;;;;3.90;1.60;;;;;;;;;;4989085;28;20228;-58
2023/07/06 16:11:50;;;;;;;3.33;1.77;;;;;;;;;;5005137;28;20199;-58
2023/07/06 16:14:34;;;;;;;3.53;1.67;;;;;;;;;;4999927;28;21099;-58
2023/07/06 16:17:01;;;;;;;3.97;1.70;;;;;;;;;;5001677;28;21061;-62
2023/07/06 16:19:28;;;;;;;4.10;1.90;;;;;;;;;;5003298;28;20210;-63
2023/07/06 16:21:55;;;;;;;4.23;2.00;;;;;;;;;;5017726;28;20261;-62
2023/07/06 16:24:22;;;;;;;5.10;1.90;;;;;;;;;;5011103;28;20204;-63
2023/07/06 16:26:48;;;;;;;3.87;2.27;;;;;;;;;;4998256;28;20667;-62
2023/07/06 16:29:15;;;;;;;4.40;1.80;;;;;;;;;;4989698;28;20196;-62
2023/07/06 16:31:42;;;;;;;4.27;1.80;;;;;;;;;;4995073;28;20207;-61
2023/07/06 16:34:26;;;;;;;3.77;1.80;;;;;;;;;;5005019;28;20239;-62
2023/07/06 16:36:53;;;;;;;124.20;15.83;;;;;;;;;;5008569;28;20250;-61
2023/07/06 16:39:37;;;;;;;2.73;1.60;;;;;;;;;;5007047;28;20172;-61
2023/07/06 16:42:04;;;;;;;3.60;1.57;;;;;;;;;;4990882;28;20192;-61
2023/07/06 16:44:31;;;;;;;6.17;1.93;;;;;;;;;;5006416;28;20203;-61
2023/07/06 16:46:58;;;;;;;8.90;2.17;;;;;;;;;;5008023;28;20215;-63
2023/07/06 16:49:25;;;;;;;3.67;1.60;;;;;;;;;;5006894;28;20226;-62
2023/07/06 16:51:51;;;;;;;5.83;2.07;;;;;;;;;;5008415;28;20513;-62
2023/07/06 16:54:18;;;;;;;4.97;2.10;;;;;;;;;;5007890;28;20196;-63
2023/07/06 16:56:45;;;;;;;4.77;1.80;;;;;;;;;;5006326;28;20192;-62
2023/07/06 16:59:30;;;;;;;4.23;1.90;;;;;;;;;;5005065;28;20359;-62
2023/07/06 17:01:57;;;;;;;3.67;1.83;;;;;;;;;;5009888;28;20184;-62
2023/07/06 17:04:24;;;;;;;3.27;1.70;;;;;;;;;;5010638;28;20195;-62
2023/07/06 17:06:51;;;;;;;3.47;1.70;;;;;;;;;;5007374;28;20188;-62
2023/07/06 17:09:18;;;;;;;3.80;2.00;;;;;;;;;;4995885;28;20234;-62
2023/07/06 17:11:47;;;;;;;5.43;1.90;;;;;;;;;;5007923;28;20806;-63
2023/07/06 17:14:14;;;;;;;3.77;1.70;;;;;;;;;;5004946;28;20255;-62
2023/07/06 17:16:41;;;;;;;4.23;2.03;;;;;;;;;;4990659;28;20213;-63
2023/07/06 17:19:08;;;;;;;18.17;3.17;;;;;;;;;;5009063;28;20723;-64
2023/07/06 17:21:34;;;;;;;4.30;2.00;;;;;;;;;;5003706;28;20678;-75
2023/07/06 17:24:01;;;;;;;4.27;2.00;;;;;;;;;;5006418;28;20196;-75
2023/07/06 17:26:28;;;;;;;3.80;1.97;;;;;;;;;;5003733;28;20201;-75
2023/07/06 17:28:55;;;;;;;2.90;1.73;;;;;;;;;;5006575;28;20196;-75
2023/07/06 17:31:22;;;;;;;5.57;1.77;;;;;;;;;;5010653;28;20192;-75
2023/07/06 17:33:50;;;;;;;2.90;2.00;;;;;;;;;;5006967;28;20586;-73
2023/07/06 17:36:17;;;;;;;4.30;1.90;;;;;;;;;;4991675;28;20227;-73
2023/07/06 17:38:47;;;;;;;3.90;1.90;;;;;;;;;;4987988;28;21100;-78
2023/07/06 17:41:14;;;;;;;5.30;1.93;;;;;;;;;;4993004;28;20223;-80
2023/07/06 17:43:43;;;;;;;5.40;2.37;;;;;;;;;;4998460;28;20217;-83
2023/07/06 17:46:13;;;;;;;3.13;1.90;;;;;;;;;;4987581;28;20199;-77
2023/07/06 17:48:42;;;;;;;5.43;1.97;;;;;;;;;;5026863;28;20216;-79
2023/07/06 17:51:09;;;;;;;3.93;2.00;;;;;;;;;;5026140;28;20263;-80
2023/07/06 17:53:37;;;;;;;4.17;2.13;;;;;;;;;;5026750;28;20204;-75
2023/07/06 17:56:04;;;;;;;3.13;1.70;;;;;;;;;;5021361;28;20698;-79
2023/07/06 17:58:32;;;;;;;2.33;1.67;;;;;;;;;;5023482;28;20187;-76
2023/07/06 18:00:59;;;;;;;5.27;1.80;;;;;;;;;;5021846;28;20198;-77
2023/07/06 18:03:28;;;;;;;5.97;1.90;;;;;;;;;;5032751;28;20270;-80
2023/07/06 18:06:02;;;;;;;4.30;1.97;;;;;;;;;;5016736;28;20215;-79
2023/07/06 18:08:29;;;;;;;5.63;1.60;;;;;;;;;;5001562;28;20309;-77
2023/07/06 18:10:57;;;;;;;3.67;1.57;;;;;;;;;;5061849;28;20194;-80
2023/07/06 18:13:24;;;;;;;2.47;1.80;;;;;;;;;;5041649;28;20573;-77
2023/07/06 18:15:51;;;;;;;3.07;1.90;;;;;;;;;;5043164;28;20754;-77
2023/07/06 18:18:18;;;;;;;3.77;2.00;;;;;;;;;;5047685;28;20218;-72
2023/07/06 18:20:45;;;;;;;4.03;2.20;;;;;;;;;;5030699;28;20187;-75
2023/07/06 18:23:12;;;;;;;5.87;1.97;;;;;;;;;;5033494;28;20196;-77
2023/07/06 18:25:40;;;;;;;4.63;1.90;;;;;;;;;;5029040;28;20199;-73
2023/07/06 18:28:12;;;;;;;5.73;1.80;;;;;;;;;;5017447;28;20198;-73
2023/07/06 18:30:39;;;;;;;3.73;1.80;;;;;;;;;;5048571;28;20241;-75
2023/07/06 18:33:07;;;;;;;5.93;2.30;;;;;;;;;;5050246;28;20230;-76
2023/07/06 18:35:35;;;;;;;2.73;1.73;;;;;;;;;;5042304;28;20254;-76
2023/07/06 18:38:02;;;;;;;4.30;1.90;;;;;;;;;;5016034;28;20882;-77
2023/07/06 18:40:30;;;;;;;3.70;2.00;;;;;;;;;;5041800;28;20230;-76
2023/07/06 18:42:58;;;;;;;6.20;2.20;;;;;;;;;;5013678;28;20658;-77
2023/07/06 18:45:25;;;;;;;3.73;1.90;;;;;;;;;;5047443;28;20242;-78
2023/07/06 18:48:08;;;;;;;3.10;1.90;;;;;;;;;;5043406;28;20195;-74
2023/07/06 18:50:35;;;;;;;5.90;2.53;;;;;;;;;;5044708;28;20202;-75
2023/07/06 18:53:03;;;;;;;5.77;2.20;;;;;;;;;;5049133;28;20209;-75
2023/07/06 18:55:33;;;;;;;12.77;3.07;;;;;;;;;;5046346;28;20646;-76
2023/07/06 18:58:18;;;;;;;5.33;2.30;;;;;;;;;;5033987;28;20164;-73
2023/07/06 19:00:45;;;;;;;8.73;2.60;;;;;;;;;;5048648;28;20199;-82
2023/07/06 19:03:13;;;;;;;7.33;2.50;;;;;;;;;;5050853;28;20254;-79
2023/07/06 19:05:43;;;;;;;4.40;2.23;;;;;;;;;;5029301;28;20688;-76
2023/07/06 19:08:10;;;;;;;4.17;2.33;;;;;;;;;;5030368;28;20271;-74
2023/07/06 19:10:40;;;;;;;7.23;2.63;;;;;;;;;;5046849;28;20289;-77
2023/07/06 19:13:07;;;;;;;9.33;2.57;;;;;;;;;;5041506;28;20269;-76
2023/07/06 19:15:38;;;;;;;8.17;2.03;;;;;;;;;;5027517;28;20594;-75
2023/07/06 19:18:05;;;;;;;7.03;2.53;;;;;;;;;;5049584;28;20198;-77
2023/07/06 19:20:32;;;;;;;5.57;2.13;;;;;;;;;;5050359;28;20202;-75
2023/07/06 19:23:01;;;;;;;8.50;2.40;;;;;;;;;;5050105;28;20697;-76
2023/07/06 19:25:29;;;;;;;6.97;2.30;;;;;;;;;;5050309;28;20308;-77
2023/07/06 19:27:56;;;;;;;6.13;2.30;;;;;;;;;;5032733;28;20206;-76
2023/07/06 19:30:23;;;;;;;7.10;2.23;;;;;;;;;;5025138;28;20202;-77
2023/07/06 19:32:50;;;;;;;12.33;2.97;;;;;;;;;;5044211;28;20199;-73
2023/07/06 19:35:18;;;;;;;10.80;2.47;;;;;;;;;;5007703;28;20243;-76
2023/07/06 19:37:45;;;;;;;4.90;2.60;;;;;;;;;;5020382;28;20191;-75
2023/07/06 19:40:12;;;;;;;8.37;2.60;;;;;;;;;;5027392;28;20187;-73
2023/07/06 19:42:39;;;;;;;6.30;2.67;;;;;;;;;;5047812;28;20194;-73
2023/07/06 19:45:06;;;;;;;5.17;2.60;;;;;;;;;;5054928;28;20588;-73
2023/07/06 19:47:33;;;;;;;9.13;2.60;;;;;;;;;;5038964;28;20562;-75
2023/07/06 19:50:00;;;;;;;5.47;2.87;;;;;;;;;;5043247;28;20195;-75
2023/07/06 19:52:30;;;;;;;9.67;3.00;;;;;;;;;;5033159;28;20203;-76
2023/07/06 19:54:57;;;;;;;7.77;2.80;;;;;;;;;;5024653;28;20199;-76
2023/07/06 19:57:24;;;;;;;5.40;2.60;;;;;;;;;;5062519;28;20297;-76
2023/07/06 20:00:10;;;;;;;7.33;3.10;;;;;;;;;;5027336;28;20321;-74
2023/07/06 20:02:53;;;;;;;4.03;2.73;;;;;;;;;;5032741;28;20175;-78
2023/07/06 20:05:20;;;;;;;5.93;4.00;;;;;;;;;;5028992;28;20202;-77
2023/07/06 20:07:50;;;;;;;10.90;3.17;;;;;;;;;;5046267;28;20561;-79
2023/07/06 20:10:18;;;;;;;8.57;3.70;;;;;;;;;;5023236;28;20240;-79
2023/07/06 20:12:48;;;;;;;8.73;4.50;;;;;;;;;;5031221;28;20199;-77
2023/07/06 20:15:15;;;;;;;9.77;4.47;;;;;;;;;;5009384;28;20569;-76
2023/07/06 20:17:42;;;;;;;7.60;3.80;;;;;;;;;;5028528;28;20202;-73
2023/07/06 20:20:12;;;;;;;6.70;3.90;;;;;;;;;;5049392;28;20195;-79
2023/07/06 20:22:39;;;;;;;8.50;4.07;;;;;;;;;;5010330;28;20193;-76
2023/07/06 20:25:15;;;;;;;6.57;3.83;;;;;;;;;;5058039;28;20203;-79
2023/07/06 20:27:42;;;;;;;8.00;3.33;;;;;;;;;;5044054;28;20662;-77
2023/07/06 20:30:09;;;;;;;8.37;3.80;;;;;;;;;;5029584;28;20202;-80
2023/07/06 20:32:37;;;;;;;6.90;3.60;;;;;;;;;;5027838;28;20214;-78
2023/07/06 20:35:05;;;;;;;7.10;3.97;;;;;;;;;;5016017;28;20827;-77
2023/07/06 20:37:36;;;;;;;6.87;3.53;;;;;;;;;;4993100;28;20359;-79
2023/07/06 20:40:03;;;;;;;6.67;3.83;;;;;;;;;;5023371;28;20180;-75
2023/07/06 20:42:31;;;;;;;6.20;3.63;;;;;;;;;;5011466;28;20560;-77
2023/07/06 20:44:58;;;;;;;5.50;3.50;;;;;;;;;;5020304;28;20199;-79
2023/07/06 20:47:26;;;;;;;6.70;3.90;;;;;;;;;;5029485;28;20377;-75
2023/07/06 20:49:53;;;;;;;10.30;4.43;;;;;;;;;;5015917;28;20191;-75
2023/07/06 20:52:22;;;;;;;10.47;5.13;;;;;;;;;;5024315;28;20202;-77
2023/07/06 20:54:51;;;;;;;10.00;4.77;;;;;;;;;;5026971;28;20653;-78
2023/07/06 20:57:36;;;;;;;7.47;5.30;;;;;;;;;;5014981;28;20218;-79
2023/07/06 21:00:03;;;;;;;8.13;5.93;;;;;;;;;;5027271;28;20259;-76
2023/07/06 21:02:31;;;;;;;9.90;5.60;;;;;;;;;;5022915;28;20192;-76
2023/07/06 21:05:02;;;;;;;8.73;5.90;;;;;;;;;;5018309;28;20215;-76
2023/07/06 21:07:29;;;;;;;10.40;5.07;;;;;;;;;;5029659;28;20260;-75
2023/07/06 21:09:58;;;;;;;8.93;5.27;;;;;;;;;;5016857;28;20214;-80
2023/07/06 21:12:25;;;;;;;8.37;5.53;;;;;;;;;;5015218;28;20599;-76
2023/07/06 21:14:52;;;;;;;9.37;6.50;;;;;;;;;;5000267;28;20235;-75
2023/07/06 21:17:19;;;;;;;11.17;6.60;;;;;;;;;;5016400;28;20227;-74
2023/07/06 21:19:47;;;;;;;15.23;7.43;;;;;;;;;;5057140;28;20191;-76
2023/07/06 21:22:14;;;;;;;8.10;6.00;;;;;;;;;;5024113;28;20851;-75
2023/07/06 21:24:42;;;;;;;11.80;7.20;;;;;;;;;;5026445;28;20195;-76
2023/07/06 21:27:11;;;;;;;11.93;6.97;;;;;;;;;;4998928;28;20326;-77
2023/07/06 21:29:39;;;;;;;9.73;6.17;;;;;;;;;;5011209;28;20231;-74
2023/07/06 21:32:26;;;;;;;9.17;6.13;;;;;;;;;;5004152;28;20183;-75
2023/07/06 21:34:53;;;;;;;9.43;6.13;;;;;;;;;;5041414;28;20309;-75
2023/07/06 21:37:20;;;;;;;12.27;7.97;;;;;;;;;;5008006;28;21064;-76
2023/07/06 21:39:47;;;;;;;12.93;7.77;;;;;;;;;;5037651;28;20198;-75
2023/07/06 21:42:14;;;;;;;11.77;7.47;;;;;;;;;;5036190;28;20202;-75
2023/07/06 21:44:58;;;;;;;14.40;6.40;;;;;;;;;;5045033;28;20182;-77
2023/07/06 21:47:25;;;;;;;9.90;5.80;;;;;;;;;;5043839;28;20183;-76
2023/07/06 21:49:52;;;;;;;11.97;6.27;;;;;;;;;;5044185;28;20309;-78
2023/07/06 21:52:19;;;;;;;13.37;6.73;;;;;;;;;;5047862;28;20676;-78
2023/07/06 21:54:48;;;;;;;11.27;7.33;;;;;;;;;;5026381;28;20290;-77
2023/07/06 21:57:15;;;;;;;10.17;7.20;;;;;;;;;;5027218;28;20211;-74
2023/07/06 21:59:43;;;;;;;8.70;6.87;;;;;;;;;;5042310;28;20222;-78
2023/07/06 22:02:13;;;;;;;13.30;7.20;;;;;;;;;;5048301;28;20274;-79
2023/07/06 22:04:40;;;;;;;11.47;7.73;;;;;;;;;;5047979;28;20996;-75
2023/07/06 22:07:06;;;;;;;10.20;6.80;;;;;;;;;;5046734;28;20194;-77
2023/07/06 22:09:33;;;;;;;11.33;7.53;;;;;;;;;;5048798;28;20202;-78
2023/07/06 22:12:01;;;;;;;12.73;7.27;;;;;;;;;;5049140;28;20680;-78
2023/07/06 22:14:27;;;;;;;15.40;7.57;;;;;;;;;;5045327;28;20241;-77
2023/07/06 22:16:54;;;;;;;13.30;8.30;;;;;;;;;;5029567;28;20219;-77
2023/07/06 22:19:39;;;;;;;12.27;6.77;;;;;;;;;;5045452;28;20563;-77
2023/07/06 22:22:05;;;;;;;9.90;7.27;;;;;;;;;;5028810;28;20188;-76
2023/07/06 22:24:32;;;;;;;10.53;7.33;;;;;;;;;;5046622;28;20190;-76
2023/07/06 22:26:59;;;;;;;14.73;8.77;;;;;;;;;;5040516;28;20205;-76
2023/07/06 22:29:25;;;;;;;13.43;9.17;;;;;;;;;;5029612;28;20191;-77
2023/07/06 22:31:52;;;;;;;11.50;7.87;;;;;;;;;;5047114;28;20253;-76
2023/07/06 22:34:21;;;;;;;12.63;7.53;;;;;;;;;;5045928;28;20360;-77
2023/07/06 22:36:48;;;;;;;11.43;7.27;;;;;;;;;;5022705;28;20222;-77
2023/07/06 22:39:15;;;;;;;13.00;8.03;;;;;;;;;;5047056;28;20244;-77
2023/07/06 22:41:42;;;;;;;13.83;7.60;;;;;;;;;;5048509;28;20186;-77
2023/07/06 22:44:09;;;;;;;11.93;6.83;;;;;;;;;;5045951;28;20187;-76